sensor_id;sensor_type;location;lat;lon;timestamp;P1;durP1;ratioP1;P2;durP2;ratioP2
26710;SDS011;18311;52.754;18.118;2022-07-06T00:01:37;2.72;;;1.52;;
26710;SDS011;18311;52.754;18.118;2022-07-06T00:04:09;3.22;;;1.70;;
26710;SDS011;18311;52.754;18.118;2022-07-06T00:06:40;4.33;;;1.80;;
26710;SDS011;18311;52.754;18.118;2022-07-06T00:09:12;2.75;;;1.75;;
26710;SDS011;18311;52.754;18.118;2022-07-06T00:11:44;2.25;;;1.50;;
26710;SDS011;18311;52.754;18.118;2022-07-06T00:14:15;3.98;;;1.75;;
26710;SDS011;18311;52.754;18.118;2022-07-06T00:16:47;3.25;;;1.95;;
26710;SDS011;18311;52.754;18.118;2022-07-06T00:19:18;5.65;;;2.20;;
26710;SDS011;18311;52.754;18.118;2022-07-06T00:21:50;4.60;;;2.00;;
26710;SDS011;18311;52.754;18.118;2022-07-06T00:24:22;3.87;;;1.80;;
26710;SDS011;18311;52.754;18.118;2022-07-06T00:26:53;5.60;;;2.08;;
26710;SDS011;18311;52.754;18.118;2022-07-06T00:29:26;6.75;;;2.10;;
26710;SDS011;18311;52.754;18.118;2022-07-06T00:31:59;5.57;;;2.30;;
26710;SDS011;18311;52.754;18.118;2022-07-06T00:34:30;5.15;;;2.35;;
26710;SDS011;18311;52.754;18.118;2022-07-06T00:37:01;4.17;;;2.20;;
26710;SDS011;18311;52.754;18.118;2022-07-06T00:39:33;3.65;;;2.08;;
26710;SDS011;18311;52.754;18.118;2022-07-06T00:42:05;5.05;;;2.42;;
26710;SDS011;18311;52.754;18.118;2022-07-06T00:44:36;4.87;;;2.50;;
26710;SDS011;18311;52.754;18.118;2022-07-06T00:47:08;3.83;;;2.30;;
26710;SDS011;18311;52.754;18.118;2022-07-06T00:49:39;5.53;;;2.40;;
26710;SDS011;18311;52.754;18.118;2022-07-06T00:52:24;5.53;;;2.47;;
26710;SDS011;18311;52.754;18.118;2022-07-06T00:54:55;4.55;;;2.50;;
26710;SDS011;18311;52.754;18.118;2022-07-06T00:57:30;3.90;;;2.60;;
26710;SDS011;18311;52.754;18.118;2022-07-06T01:00:05;4.17;;;2.65;;
26710;SDS011;18311;52.754;18.118;2022-07-06T01:02:38;4.85;;;2.67;;
26710;SDS011;18311;52.754;18.118;2022-07-06T01:05:10;4.80;;;2.70;;
26710;SDS011;18311;52.754;18.118;2022-07-06T01:07:43;5.70;;;2.62;;
26710;SDS011;18311;52.754;18.118;2022-07-06T01:10:16;6.60;;;2.98;;
26710;SDS011;18311;52.754;18.118;2022-07-06T01:12:49;5.03;;;2.90;;
26710;SDS011;18311;52.754;18.118;2022-07-06T01:15:23;3.77;;;3.00;;
26710;SDS011;18311;52.754;18.118;2022-07-06T01:17:55;3.55;;;2.67;;
26710;SDS011;18311;52.754;18.118;2022-07-06T01:20:29;6.17;;;3.33;;
26710;SDS011;18311;52.754;18.118;2022-07-06T01:23:00;6.12;;;2.80;;
26710;SDS011;18311;52.754;18.118;2022-07-06T01:25:32;5.00;;;2.98;;
26710;SDS011;18311;52.754;18.118;2022-07-06T01:28:03;5.37;;;3.40;;
26710;SDS011;18311;52.754;18.118;2022-07-06T01:30:35;6.03;;;3.20;;
26710;SDS011;18311;52.754;18.118;2022-07-06T01:33:06;5.33;;;3.33;;
26710;SDS011;18311;52.754;18.118;2022-07-06T01:35:39;3.87;;;2.83;;
26710;SDS011;18311;52.754;18.118;2022-07-06T01:38:11;4.12;;;3.20;;
26710;SDS011;18311;52.754;18.118;2022-07-06T01:40:42;3.47;;;2.87;;
26710;SDS011;18311;52.754;18.118;2022-07-06T01:43:14;4.15;;;3.00;;
26710;SDS011;18311;52.754;18.118;2022-07-06T01:45:45;4.58;;;3.40;;
26710;SDS011;18311;52.754;18.118;2022-07-06T01:48:17;7.05;;;3.52;;
26710;SDS011;18311;52.754;18.118;2022-07-06T01:50:50;5.65;;;3.12;;
26710;SDS011;18311;52.754;18.118;2022-07-06T01:53:22;6.30;;;3.52;;
26710;SDS011;18311;52.754;18.118;2022-07-06T01:55:53;5.25;;;3.40;;
26710;SDS011;18311;52.754;18.118;2022-07-06T01:58:24;4.30;;;2.92;;
26710;SDS011;18311;52.754;18.118;2022-07-06T02:00:55;5.67;;;3.72;;
26710;SDS011;18311;52.754;18.118;2022-07-06T02:03:27;7.80;;;3.75;;
26710;SDS011;18311;52.754;18.118;2022-07-06T02:05:58;4.67;;;2.92;;
26710;SDS011;18311;52.754;18.118;2022-07-06T02:08:31;3.52;;;2.70;;
26710;SDS011;18311;52.754;18.118;2022-07-06T02:11:03;4.95;;;3.05;;
26710;SDS011;18311;52.754;18.118;2022-07-06T02:13:35;6.47;;;3.80;;
26710;SDS011;18311;52.754;18.118;2022-07-06T02:16:07;6.62;;;3.80;;
26710;SDS011;18311;52.754;18.118;2022-07-06T02:18:38;5.62;;;3.17;;
26710;SDS011;18311;52.754;18.118;2022-07-06T02:21:10;5.03;;;3.17;;
26710;SDS011;18311;52.754;18.118;2022-07-06T02:23:41;7.40;;;4.17;;
26710;SDS011;18311;52.754;18.118;2022-07-06T02:26:13;6.62;;;3.70;;
26710;SDS011;18311;52.754;18.118;2022-07-06T02:28:44;4.78;;;3.35;;
26710;SDS011;18311;52.754;18.118;2022-07-06T02:31:16;5.67;;;3.45;;
26710;SDS011;18311;52.754;18.118;2022-07-06T02:33:48;6.58;;;4.12;;
26710;SDS011;18311;52.754;18.118;2022-07-06T02:36:19;5.92;;;3.67;;
26710;SDS011;18311;52.754;18.118;2022-07-06T02:38:50;6.20;;;3.90;;
26710;SDS011;18311;52.754;18.118;2022-07-06T02:41:23;8.90;;;4.15;;
26710;SDS011;18311;52.754;18.118;2022-07-06T02:43:54;8.43;;;4.03;;
26710;SDS011;18311;52.754;18.118;2022-07-06T02:46:25;5.53;;;3.67;;
26710;SDS011;18311;52.754;18.118;2022-07-06T02:48:56;9.68;;;4.55;;
26710;SDS011;18311;52.754;18.118;2022-07-06T02:51:28;7.30;;;3.95;;
26710;SDS011;18311;52.754;18.118;2022-07-06T02:53:59;9.80;;;4.45;;
26710;SDS011;18311;52.754;18.118;2022-07-06T02:56:30;6.25;;;4.10;;
26710;SDS011;18311;52.754;18.118;2022-07-06T02:59:03;9.20;;;4.78;;
26710;SDS011;18311;52.754;18.118;2022-07-06T03:01:36;8.53;;;4.65;;
26710;SDS011;18311;52.754;18.118;2022-07-06T03:04:07;6.83;;;4.30;;
26710;SDS011;18311;52.754;18.118;2022-07-06T03:06:38;7.30;;;4.60;;
26710;SDS011;18311;52.754;18.118;2022-07-06T03:09:10;6.47;;;4.45;;
26710;SDS011;18311;52.754;18.118;2022-07-06T03:11:41;5.47;;;4.20;;
26710;SDS011;18311;52.754;18.118;2022-07-06T03:14:14;8.03;;;4.40;;
26710;SDS011;18311;52.754;18.118;2022-07-06T03:16:45;6.83;;;4.20;;
26710;SDS011;18311;52.754;18.118;2022-07-06T03:19:18;6.35;;;4.20;;
26710;SDS011;18311;52.754;18.118;2022-07-06T03:21:51;7.87;;;4.70;;
26710;SDS011;18311;52.754;18.118;2022-07-06T03:24:24;6.20;;;4.15;;
26710;SDS011;18311;52.754;18.118;2022-07-06T03:26:57;8.33;;;3.92;;
26710;SDS011;18311;52.754;18.118;2022-07-06T03:29:29;8.18;;;4.28;;
26710;SDS011;18311;52.754;18.118;2022-07-06T03:32:00;7.12;;;4.30;;
26710;SDS011;18311;52.754;18.118;2022-07-06T03:34:31;5.80;;;3.70;;
26710;SDS011;18311;52.754;18.118;2022-07-06T03:37:02;7.08;;;4.00;;
26710;SDS011;18311;52.754;18.118;2022-07-06T03:39:34;5.53;;;3.90;;
26710;SDS011;18311;52.754;18.118;2022-07-06T03:42:07;5.17;;;3.98;;
26710;SDS011;18311;52.754;18.118;2022-07-06T03:44:38;6.90;;;4.22;;
26710;SDS011;18311;52.754;18.118;2022-07-06T03:47:10;6.15;;;3.95;;
26710;SDS011;18311;52.754;18.118;2022-07-06T03:49:41;7.92;;;3.85;;
26710;SDS011;18311;52.754;18.118;2022-07-06T03:52:14;6.45;;;3.87;;
26710;SDS011;18311;52.754;18.118;2022-07-06T03:54:45;6.95;;;4.00;;
26710;SDS011;18311;52.754;18.118;2022-07-06T03:57:16;5.42;;;4.05;;
26710;SDS011;18311;52.754;18.118;2022-07-06T03:59:47;5.90;;;3.65;;
26710;SDS011;18311;52.754;18.118;2022-07-06T04:02:20;7.25;;;3.47;;
26710;SDS011;18311;52.754;18.118;2022-07-06T04:04:53;6.62;;;4.05;;
26710;SDS011;18311;52.754;18.118;2022-07-06T04:07:24;5.72;;;3.62;;
26710;SDS011;18311;52.754;18.118;2022-07-06T04:09:56;8.45;;;4.10;;
26710;SDS011;18311;52.754;18.118;2022-07-06T04:12:27;6.50;;;3.87;;
26710;SDS011;18311;52.754;18.118;2022-07-06T04:14:58;6.70;;;3.80;;
26710;SDS011;18311;52.754;18.118;2022-07-06T04:17:29;7.05;;;3.60;;
26710;SDS011;18311;52.754;18.118;2022-07-06T04:20:15;7.33;;;4.08;;
26710;SDS011;18311;52.754;18.118;2022-07-06T04:22:46;6.17;;;3.98;;
26710;SDS011;18311;52.754;18.118;2022-07-06T04:25:21;8.35;;;4.12;;
26710;SDS011;18311;52.754;18.118;2022-07-06T04:27:52;7.35;;;4.03;;
26710;SDS011;18311;52.754;18.118;2022-07-06T04:30:24;6.60;;;3.70;;
26710;SDS011;18311;52.754;18.118;2022-07-06T04:32:56;7.30;;;4.00;;
26710;SDS011;18311;52.754;18.118;2022-07-06T04:35:28;7.12;;;3.95;;
26710;SDS011;18311;52.754;18.118;2022-07-06T04:38:00;7.00;;;4.00;;
26710;SDS011;18311;52.754;18.118;2022-07-06T04:40:31;7.10;;;3.90;;
26710;SDS011;18311;52.754;18.118;2022-07-06T04:43:02;8.78;;;3.72;;
26710;SDS011;18311;52.754;18.118;2022-07-06T04:45:34;10.43;;;4.45;;
26710;SDS011;18311;52.754;18.118;2022-07-06T04:48:05;7.00;;;4.20;;
26710;SDS011;18311;52.754;18.118;2022-07-06T04:50:37;6.28;;;3.60;;
26710;SDS011;18311;52.754;18.118;2022-07-06T04:53:08;7.20;;;3.62;;
26710;SDS011;18311;52.754;18.118;2022-07-06T04:55:39;6.25;;;3.20;;
26710;SDS011;18311;52.754;18.118;2022-07-06T04:58:11;5.75;;;3.50;;
26710;SDS011;18311;52.754;18.118;2022-07-06T05:00:42;6.80;;;3.62;;
26710;SDS011;18311;52.754;18.118;2022-07-06T05:03:14;6.17;;;3.52;;
26710;SDS011;18311;52.754;18.118;2022-07-06T05:05:45;6.35;;;3.50;;
26710;SDS011;18311;52.754;18.118;2022-07-06T05:08:16;6.37;;;3.27;;
26710;SDS011;18311;52.754;18.118;2022-07-06T05:10:48;5.47;;;3.10;;
26710;SDS011;18311;52.754;18.118;2022-07-06T05:13:20;7.90;;;3.60;;
26710;SDS011;18311;52.754;18.118;2022-07-06T05:15:52;5.78;;;3.37;;
26710;SDS011;18311;52.754;18.118;2022-07-06T05:18:23;6.40;;;3.40;;
26710;SDS011;18311;52.754;18.118;2022-07-06T05:20:55;6.95;;;3.50;;
26710;SDS011;18311;52.754;18.118;2022-07-06T05:23:31;6.70;;;3.67;;
26710;SDS011;18311;52.754;18.118;2022-07-06T05:26:02;6.25;;;3.55;;
26710;SDS011;18311;52.754;18.118;2022-07-06T05:28:33;3.98;;;3.02;;
26710;SDS011;18311;52.754;18.118;2022-07-06T05:31:07;5.67;;;3.60;;
26710;SDS011;18311;52.754;18.118;2022-07-06T05:33:38;10.05;;;3.62;;
26710;SDS011;18311;52.754;18.118;2022-07-06T05:36:12;7.00;;;3.45;;
26710;SDS011;18311;52.754;18.118;2022-07-06T05:38:43;6.78;;;3.08;;
26710;SDS011;18311;52.754;18.118;2022-07-06T05:41:15;8.48;;;3.27;;
26710;SDS011;18311;52.754;18.118;2022-07-06T05:43:46;4.03;;;2.90;;
26710;SDS011;18311;52.754;18.118;2022-07-06T05:46:18;4.83;;;2.20;;
26710;SDS011;18311;52.754;18.118;2022-07-06T05:48:50;5.53;;;2.75;;
26710;SDS011;18311;52.754;18.118;2022-07-06T05:51:35;4.45;;;2.17;;
26710;SDS011;18311;52.754;18.118;2022-07-06T05:54:06;6.40;;;2.27;;
26710;SDS011;18311;52.754;18.118;2022-07-06T05:56:37;8.03;;;2.40;;
26710;SDS011;18311;52.754;18.118;2022-07-06T05:59:08;4.20;;;2.20;;
26710;SDS011;18311;52.754;18.118;2022-07-06T06:01:40;4.87;;;2.00;;
26710;SDS011;18311;52.754;18.118;2022-07-06T06:04:11;4.15;;;1.95;;
26710;SDS011;18311;52.754;18.118;2022-07-06T06:06:43;4.33;;;1.80;;
26710;SDS011;18311;52.754;18.118;2022-07-06T06:09:22;4.92;;;1.92;;
26710;SDS011;18311;52.754;18.118;2022-07-06T06:11:53;4.60;;;1.80;;
26710;SDS011;18311;52.754;18.118;2022-07-06T06:14:25;2.87;;;1.22;;
26710;SDS011;18311;52.754;18.118;2022-07-06T06:16:56;2.30;;;1.20;;
26710;SDS011;18311;52.754;18.118;2022-07-06T06:19:28;3.95;;;1.40;;
26710;SDS011;18311;52.754;18.118;2022-07-06T06:21:59;3.75;;;1.40;;
26710;SDS011;18311;52.754;18.118;2022-07-06T06:24:32;3.60;;;1.20;;
26710;SDS011;18311;52.754;18.118;2022-07-06T06:27:03;6.00;;;1.40;;
26710;SDS011;18311;52.754;18.118;2022-07-06T06:29:34;2.72;;;1.52;;
26710;SDS011;18311;52.754;18.118;2022-07-06T06:32:06;2.87;;;1.40;;
26710;SDS011;18311;52.754;18.118;2022-07-06T06:34:38;2.25;;;1.15;;
26710;SDS011;18311;52.754;18.118;2022-07-06T06:37:10;3.27;;;1.22;;
26710;SDS011;18311;52.754;18.118;2022-07-06T06:39:41;3.12;;;1.20;;
26710;SDS011;18311;52.754;18.118;2022-07-06T06:42:12;2.58;;;0.93;;
26710;SDS011;18311;52.754;18.118;2022-07-06T06:44:44;2.52;;;1.00;;
26710;SDS011;18311;52.754;18.118;2022-07-06T06:47:17;2.33;;;1.22;;
26710;SDS011;18311;52.754;18.118;2022-07-06T06:49:49;3.20;;;0.85;;
26710;SDS011;18311;52.754;18.118;2022-07-06T06:52:20;2.65;;;1.10;;
26710;SDS011;18311;52.754;18.118;2022-07-06T06:54:53;3.50;;;1.12;;
26710;SDS011;18311;52.754;18.118;2022-07-06T06:57:24;2.35;;;0.75;;
26710;SDS011;18311;52.754;18.118;2022-07-06T06:59:57;4.62;;;1.70;;
26710;SDS011;18311;52.754;18.118;2022-07-06T07:02:28;4.28;;;1.17;;
26710;SDS011;18311;52.754;18.118;2022-07-06T07:05:00;4.20;;;0.80;;
26710;SDS011;18311;52.754;18.118;2022-07-06T07:07:33;3.12;;;0.90;;
26710;SDS011;18311;52.754;18.118;2022-07-06T07:10:06;1.75;;;0.88;;
26710;SDS011;18311;52.754;18.118;2022-07-06T07:12:47;2.55;;;1.00;;
26710;SDS011;18311;52.754;18.118;2022-07-06T07:15:18;2.75;;;0.90;;
26710;SDS011;18311;52.754;18.118;2022-07-06T07:17:49;2.12;;;0.90;;
26710;SDS011;18311;52.754;18.118;2022-07-06T07:20:21;3.30;;;1.15;;
26710;SDS011;18311;52.754;18.118;2022-07-06T07:22:52;1.90;;;0.82;;
26710;SDS011;18311;52.754;18.118;2022-07-06T07:25:24;2.30;;;1.00;;
26710;SDS011;18311;52.754;18.118;2022-07-06T07:27:56;4.08;;;1.27;;
26710;SDS011;18311;52.754;18.118;2022-07-06T07:30:28;3.40;;;1.00;;
26710;SDS011;18311;52.754;18.118;2022-07-06T07:33:00;2.95;;;1.22;;
26710;SDS011;18311;52.754;18.118;2022-07-06T07:35:31;2.20;;;1.00;;
26710;SDS011;18311;52.754;18.118;2022-07-06T07:38:03;3.60;;;0.93;;
26710;SDS011;18311;52.754;18.118;2022-07-06T07:40:34;3.70;;;1.10;;
26710;SDS011;18311;52.754;18.118;2022-07-06T07:43:05;3.25;;;1.00;;
26710;SDS011;18311;52.754;18.118;2022-07-06T07:45:37;2.47;;;0.95;;
26710;SDS011;18311;52.754;18.118;2022-07-06T07:48:08;2.90;;;1.07;;
26710;SDS011;18311;52.754;18.118;2022-07-06T07:50:40;3.75;;;1.12;;
26710;SDS011;18311;52.754;18.118;2022-07-06T07:53:11;2.77;;;1.10;;
26710;SDS011;18311;52.754;18.118;2022-07-06T07:55:42;2.30;;;1.00;;
26710;SDS011;18311;52.754;18.118;2022-07-06T07:58:15;2.40;;;0.70;;
26710;SDS011;18311;52.754;18.118;2022-07-06T08:00:46;1.85;;;0.85;;
26710;SDS011;18311;52.754;18.118;2022-07-06T08:03:17;2.85;;;0.90;;
26710;SDS011;18311;52.754;18.118;2022-07-06T08:05:49;2.05;;;0.90;;
26710;SDS011;18311;52.754;18.118;2022-07-06T08:08:22;3.00;;;0.93;;
26710;SDS011;18311;52.754;18.118;2022-07-06T08:10:54;2.12;;;0.85;;
26710;SDS011;18311;52.754;18.118;2022-07-06T08:13:28;1.87;;;0.78;;
26710;SDS011;18311;52.754;18.118;2022-07-06T08:15:59;2.20;;;0.85;;
26710;SDS011;18311;52.754;18.118;2022-07-06T08:18:33;3.05;;;1.07;;
26710;SDS011;18311;52.754;18.118;2022-07-06T08:21:05;2.12;;;1.02;;
26710;SDS011;18311;52.754;18.118;2022-07-06T08:23:38;2.15;;;1.07;;
26710;SDS011;18311;52.754;18.118;2022-07-06T08:26:09;1.60;;;0.80;;
26710;SDS011;18311;52.754;18.118;2022-07-06T08:28:47;1.77;;;1.00;;
26710;SDS011;18311;52.754;18.118;2022-07-06T08:31:19;2.85;;;0.75;;
26710;SDS011;18311;52.754;18.118;2022-07-06T08:33:52;3.52;;;1.02;;
26710;SDS011;18311;52.754;18.118;2022-07-06T08:36:24;2.05;;;1.00;;
26710;SDS011;18311;52.754;18.118;2022-07-06T08:38:56;1.57;;;0.90;;
26710;SDS011;18311;52.754;18.118;2022-07-06T08:41:28;3.52;;;1.05;;
26710;SDS011;18311;52.754;18.118;2022-07-06T08:43:59;2.67;;;1.02;;
26710;SDS011;18311;52.754;18.118;2022-07-06T08:46:32;3.02;;;0.98;;
26710;SDS011;18311;52.754;18.118;2022-07-06T08:49:04;2.77;;;0.85;;
26710;SDS011;18311;52.754;18.118;2022-07-06T08:51:36;2.95;;;1.22;;
26710;SDS011;18311;52.754;18.118;2022-07-06T08:54:08;3.22;;;0.90;;
26710;SDS011;18311;52.754;18.118;2022-07-06T08:56:41;1.52;;;0.60;;
26710;SDS011;18311;52.754;18.118;2022-07-06T08:59:15;2.55;;;0.82;;
26710;SDS011;18311;52.754;18.118;2022-07-06T09:01:48;2.75;;;1.10;;
26710;SDS011;18311;52.754;18.118;2022-07-06T09:04:20;5.08;;;0.93;;
26710;SDS011;18311;52.754;18.118;2022-07-06T09:06:53;2.80;;;1.00;;
26710;SDS011;18311;52.754;18.118;2022-07-06T09:09:26;2.55;;;1.00;;
26710;SDS011;18311;52.754;18.118;2022-07-06T09:12:02;2.42;;;0.90;;
26710;SDS011;18311;52.754;18.118;2022-07-06T09:14:34;3.33;;;0.80;;
26710;SDS011;18311;52.754;18.118;2022-07-06T09:17:07;2.15;;;0.80;;
26710;SDS011;18311;52.754;18.118;2022-07-06T09:19:40;2.92;;;1.22;;
26710;SDS011;18311;52.754;18.118;2022-07-06T09:22:13;2.62;;;0.98;;
26710;SDS011;18311;52.754;18.118;2022-07-06T09:24:47;5.17;;;1.10;;
26710;SDS011;18311;52.754;18.118;2022-07-06T09:27:19;2.58;;;0.88;;
26710;SDS011;18311;52.754;18.118;2022-07-06T09:29:52;1.82;;;0.85;;
26710;SDS011;18311;52.754;18.118;2022-07-06T09:32:23;3.47;;;1.32;;
26710;SDS011;18311;52.754;18.118;2022-07-06T09:34:54;6.33;;;1.60;;
26710;SDS011;18311;52.754;18.118;2022-07-06T09:37:26;5.50;;;1.50;;
26710;SDS011;18311;52.754;18.118;2022-07-06T09:39:59;10.08;;;1.90;;
26710;SDS011;18311;52.754;18.118;2022-07-06T09:42:30;7.60;;;1.82;;
26710;SDS011;18311;52.754;18.118;2022-07-06T09:45:03;3.92;;;1.98;;
26710;SDS011;18311;52.754;18.118;2022-07-06T09:47:35;4.92;;;2.10;;
26710;SDS011;18311;52.754;18.118;2022-07-06T09:50:09;5.47;;;2.20;;
26710;SDS011;18311;52.754;18.118;2022-07-06T09:52:52;4.12;;;2.20;;
26710;SDS011;18311;52.754;18.118;2022-07-06T09:55:16;7.83;;;2.30;;
26710;SDS011;18311;52.754;18.118;2022-07-06T09:57:57;4.83;;;2.20;;
26710;SDS011;18311;52.754;18.118;2022-07-06T10:00:24;5.65;;;2.22;;
26710;SDS011;18311;52.754;18.118;2022-07-06T10:02:55;5.12;;;2.22;;
26710;SDS011;18311;52.754;18.118;2022-07-06T10:05:27;5.50;;;2.15;;
26710;SDS011;18311;52.754;18.118;2022-07-06T10:07:59;9.08;;;2.45;;
26710;SDS011;18311;52.754;18.118;2022-07-06T10:10:35;7.10;;;2.58;;
26710;SDS011;18311;52.754;18.118;2022-07-06T10:13:08;4.85;;;2.20;;
26710;SDS011;18311;52.754;18.118;2022-07-06T10:15:40;7.65;;;2.35;;
26710;SDS011;18311;52.754;18.118;2022-07-06T10:18:13;4.35;;;2.37;;
26710;SDS011;18311;52.754;18.118;2022-07-06T10:20:45;5.58;;;2.27;;
26710;SDS011;18311;52.754;18.118;2022-07-06T10:23:19;4.50;;;2.12;;
26710;SDS011;18311;52.754;18.118;2022-07-06T10:25:51;3.72;;;2.12;;
26710;SDS011;18311;52.754;18.118;2022-07-06T10:28:23;7.75;;;2.10;;
26710;SDS011;18311;52.754;18.118;2022-07-06T10:30:56;4.33;;;1.90;;
26710;SDS011;18311;52.754;18.118;2022-07-06T10:33:29;2.85;;;1.90;;
26710;SDS011;18311;52.754;18.118;2022-07-06T10:36:01;9.50;;;2.33;;
26710;SDS011;18311;52.754;18.118;2022-07-06T10:38:34;6.58;;;2.20;;
26710;SDS011;18311;52.754;18.118;2022-07-06T10:41:07;15.65;;;2.65;;
26710;SDS011;18311;52.754;18.118;2022-07-06T10:43:43;3.30;;;1.67;;
26710;SDS011;18311;52.754;18.118;2022-07-06T10:46:16;7.62;;;2.00;;
26710;SDS011;18311;52.754;18.118;2022-07-06T10:48:49;7.20;;;2.05;;
26710;SDS011;18311;52.754;18.118;2022-07-06T10:51:24;8.33;;;2.05;;
26710;SDS011;18311;52.754;18.118;2022-07-06T10:53:58;7.42;;;2.12;;
26710;SDS011;18311;52.754;18.118;2022-07-06T10:56:40;5.75;;;2.20;;
26710;SDS011;18311;52.754;18.118;2022-07-06T10:59:15;4.37;;;2.00;;
26710;SDS011;18311;52.754;18.118;2022-07-06T11:04:47;4.97;;;2.10;;
26710;SDS011;18311;52.754;18.118;2022-07-06T11:07:19;3.40;;;1.65;;
26710;SDS011;18311;52.754;18.118;2022-07-06T11:09:55;2.50;;;1.50;;
26710;SDS011;18311;52.754;18.118;2022-07-06T11:12:27;2.62;;;1.80;;
26710;SDS011;18311;52.754;18.118;2022-07-06T11:14:59;6.05;;;1.77;;
26710;SDS011;18311;52.754;18.118;2022-07-06T11:17:34;3.95;;;1.70;;
26710;SDS011;18311;52.754;18.118;2022-07-06T11:20:09;3.20;;;1.42;;
26710;SDS011;18311;52.754;18.118;2022-07-06T11:22:41;3.80;;;1.92;;
26710;SDS011;18311;52.754;18.118;2022-07-06T11:25:14;3.27;;;1.42;;
26710;SDS011;18311;52.754;18.118;2022-07-06T11:27:48;5.35;;;1.70;;
26710;SDS011;18311;52.754;18.118;2022-07-06T11:30:20;5.00;;;1.87;;
26710;SDS011;18311;52.754;18.118;2022-07-06T11:32:55;4.30;;;1.92;;
26710;SDS011;18311;52.754;18.118;2022-07-06T11:35:26;6.72;;;2.10;;
26710;SDS011;18311;52.754;18.118;2022-07-06T11:37:58;4.97;;;2.00;;
26710;SDS011;18311;52.754;18.118;2022-07-06T11:40:29;6.05;;;2.40;;
26710;SDS011;18311;52.754;18.118;2022-07-06T11:43:00;3.08;;;1.60;;
26710;SDS011;18311;52.754;18.118;2022-07-06T11:45:32;4.85;;;1.90;;
26710;SDS011;18311;52.754;18.118;2022-07-06T11:48:10;3.05;;;1.67;;
26710;SDS011;18311;52.754;18.118;2022-07-06T11:50:41;3.72;;;1.60;;
26710;SDS011;18311;52.754;18.118;2022-07-06T11:53:14;2.42;;;1.52;;
26710;SDS011;18311;52.754;18.118;2022-07-06T11:55:46;4.37;;;1.70;;
26710;SDS011;18311;52.754;18.118;2022-07-06T11:58:20;4.08;;;1.87;;
26710;SDS011;18311;52.754;18.118;2022-07-06T12:03:38;2.87;;;1.50;;
26710;SDS011;18311;52.754;18.118;2022-07-06T12:06:21;4.22;;;1.72;;
26710;SDS011;18311;52.754;18.118;2022-07-06T12:08:57;5.22;;;1.55;;
26710;SDS011;18311;52.754;18.118;2022-07-06T12:11:32;2.90;;;1.30;;
26710;SDS011;18311;52.754;18.118;2022-07-06T12:14:12;5.03;;;1.62;;
26710;SDS011;18311;52.754;18.118;2022-07-06T12:16:46;2.90;;;1.30;;
26710;SDS011;18311;52.754;18.118;2022-07-06T12:19:23;3.52;;;1.27;;
26710;SDS011;18311;52.754;18.118;2022-07-06T12:21:54;2.58;;;1.07;;
26710;SDS011;18311;52.754;18.118;2022-07-06T12:24:26;3.05;;;1.55;;
26710;SDS011;18311;52.754;18.118;2022-07-06T12:27:11;2.92;;;1.10;;
26710;SDS011;18311;52.754;18.118;2022-07-06T12:29:44;2.12;;;1.10;;
26710;SDS011;18311;52.754;18.118;2022-07-06T12:32:16;2.05;;;1.20;;
26710;SDS011;18311;52.754;18.118;2022-07-06T12:37:37;2.75;;;1.02;;
26710;SDS011;18311;52.754;18.118;2022-07-06T12:40:12;2.25;;;1.10;;
26710;SDS011;18311;52.754;18.118;2022-07-06T12:42:47;2.30;;;1.05;;
26710;SDS011;18311;52.754;18.118;2022-07-06T12:45:19;3.20;;;1.25;;
26710;SDS011;18311;52.754;18.118;2022-07-06T12:48:09;2.45;;;1.10;;
26710;SDS011;18311;52.754;18.118;2022-07-06T12:50:37;2.35;;;1.25;;
26710;SDS011;18311;52.754;18.118;2022-07-06T13:01:27;2.77;;;1.10;;
26710;SDS011;18311;52.754;18.118;2022-07-06T13:03:58;3.37;;;1.25;;
26710;SDS011;18311;52.754;18.118;2022-07-06T13:06:30;4.08;;;1.10;;
26710;SDS011;18311;52.754;18.118;2022-07-06T13:09:04;2.72;;;1.27;;
26710;SDS011;18311;52.754;18.118;2022-07-06T13:11:35;2.87;;;1.00;;
26710;SDS011;18311;52.754;18.118;2022-07-06T13:14:07;3.30;;;1.20;;
26710;SDS011;18311;52.754;18.118;2022-07-06T13:16:40;1.65;;;1.00;;
26710;SDS011;18311;52.754;18.118;2022-07-06T13:19:12;2.08;;;0.90;;
26710;SDS011;18311;52.754;18.118;2022-07-06T13:21:44;3.87;;;1.07;;
26710;SDS011;18311;52.754;18.118;2022-07-06T13:24:15;2.80;;;1.00;;
26710;SDS011;18311;52.754;18.118;2022-07-06T13:26:46;3.50;;;1.10;;
26710;SDS011;18311;52.754;18.118;2022-07-06T13:29:18;4.15;;;0.90;;
26710;SDS011;18311;52.754;18.118;2022-07-06T13:31:49;3.30;;;1.27;;
26710;SDS011;18311;52.754;18.118;2022-07-06T13:34:21;2.62;;;0.90;;
26710;SDS011;18311;52.754;18.118;2022-07-06T13:36:53;3.22;;;0.80;;
26710;SDS011;18311;52.754;18.118;2022-07-06T13:39:24;1.72;;;0.95;;
26710;SDS011;18311;52.754;18.118;2022-07-06T13:41:56;2.85;;;1.05;;
26710;SDS011;18311;52.754;18.118;2022-07-06T13:44:28;3.90;;;1.10;;
26710;SDS011;18311;52.754;18.118;2022-07-06T13:46:59;2.40;;;1.10;;
26710;SDS011;18311;52.754;18.118;2022-07-06T13:49:31;3.27;;;0.85;;
26710;SDS011;18311;52.754;18.118;2022-07-06T13:52:02;4.72;;;0.90;;
26710;SDS011;18311;52.754;18.118;2022-07-06T13:54:36;1.72;;;0.95;;
26710;SDS011;18311;52.754;18.118;2022-07-06T13:57:06;1.87;;;0.90;;
26710;SDS011;18311;52.754;18.118;2022-07-06T13:59:38;3.75;;;1.07;;
26710;SDS011;18311;52.754;18.118;2022-07-06T14:02:09;2.80;;;0.90;;
26710;SDS011;18311;52.754;18.118;2022-07-06T14:04:41;2.02;;;0.85;;
26710;SDS011;18311;52.754;18.118;2022-07-06T14:07:12;2.10;;;0.90;;
26710;SDS011;18311;52.754;18.118;2022-07-06T14:09:45;2.92;;;0.80;;
26710;SDS011;18311;52.754;18.118;2022-07-06T14:12:17;3.40;;;0.80;;
26710;SDS011;18311;52.754;18.118;2022-07-06T14:14:50;2.08;;;0.68;;
26710;SDS011;18311;52.754;18.118;2022-07-06T14:17:21;2.42;;;0.60;;
26710;SDS011;18311;52.754;18.118;2022-07-06T14:19:53;1.98;;;0.85;;
26710;SDS011;18311;52.754;18.118;2022-07-06T14:22:24;1.27;;;0.60;;
26710;SDS011;18311;52.754;18.118;2022-07-06T14:24:55;2.40;;;0.70;;
26710;SDS011;18311;52.754;18.118;2022-07-06T14:27:27;3.80;;;0.70;;
26710;SDS011;18311;52.754;18.118;2022-07-06T14:30:00;3.40;;;0.95;;
26710;SDS011;18311;52.754;18.118;2022-07-06T14:32:31;5.17;;;0.88;;
26710;SDS011;18311;52.754;18.118;2022-07-06T14:35:03;1.87;;;0.60;;
26710;SDS011;18311;52.754;18.118;2022-07-06T14:37:36;2.60;;;0.50;;
26710;SDS011;18311;52.754;18.118;2022-07-06T14:40:08;1.60;;;0.50;;
26710;SDS011;18311;52.754;18.118;2022-07-06T14:42:40;3.50;;;0.82;;
26710;SDS011;18311;52.754;18.118;2022-07-06T14:45:11;1.32;;;0.62;;
26710;SDS011;18311;52.754;18.118;2022-07-06T14:47:42;2.65;;;0.70;;
26710;SDS011;18311;52.754;18.118;2022-07-06T14:50:13;1.17;;;0.57;;
26710;SDS011;18311;52.754;18.118;2022-07-06T14:52:44;2.35;;;0.50;;
26710;SDS011;18311;52.754;18.118;2022-07-06T14:55:16;1.22;;;0.50;;
26710;SDS011;18311;52.754;18.118;2022-07-06T14:57:47;1.92;;;0.40;;
26710;SDS011;18311;52.754;18.118;2022-07-06T15:00:18;1.85;;;0.55;;
26710;SDS011;18311;52.754;18.118;2022-07-06T15:02:49;2.95;;;0.70;;
26710;SDS011;18311;52.754;18.118;2022-07-06T15:05:21;1.45;;;0.50;;
26710;SDS011;18311;52.754;18.118;2022-07-06T15:07:53;2.20;;;0.60;;
26710;SDS011;18311;52.754;18.118;2022-07-06T15:10:25;2.90;;;0.70;;
26710;SDS011;18311;52.754;18.118;2022-07-06T15:12:58;1.87;;;0.50;;
26710;SDS011;18311;52.754;18.118;2022-07-06T15:15:29;2.15;;;0.60;;
26710;SDS011;18311;52.754;18.118;2022-07-06T15:18:02;0.90;;;0.40;;
26710;SDS011;18311;52.754;18.118;2022-07-06T15:20:34;1.05;;;0.40;;